sensor_id;sensor_type;location;lat;lon;timestamp;P1;durP1;ratioP1;P2;durP2;ratioP2
48795;SDS011;34607;48.520;-1.330;2023-03-23T07:40:29;19.85;;;5.30;;
48795;SDS011;34607;48.520;-1.330;2023-03-23T07:43:03;22.45;;;4.97;;
48795;SDS011;34607;48.520;-1.330;2023-03-23T07:45:49;25.48;;;6.40;;
48795;SDS011;34607;48.520;-1.330;2023-03-23T07:48:18;25.20;;;5.22;;
48795;SDS011;34607;48.520;-1.330;2023-03-23T07:50:45;27.85;;;5.65;;
48795;SDS011;34607;48.520;-1.330;2023-03-23T07:53:15;29.27;;;6.85;;
48795;SDS011;34607;48.520;-1.330;2023-03-23T07:55:49;22.13;;;5.18;;
48795;SDS011;34607;48.520;-1.330;2023-03-23T07:58:39;27.23;;;6.10;;
48795;SDS011;34607;48.520;-1.330;2023-03-23T08:01:06;28.95;;;6.30;;
48795;SDS011;34607;48.520;-1.330;2023-03-23T08:03:35;33.97;;;6.55;;
48795;SDS011;34607;48.520;-1.330;2023-03-23T08:06:28;25.70;;;5.70;;
48795;SDS011;34607;48.520;-1.330;2023-03-23T08:09:30;23.80;;;5.35;;
48795;SDS011;34607;48.520;-1.330;2023-03-23T08:12:23;26.92;;;6.63;;
48795;SDS011;34607;48.520;-1.330;2023-03-23T08:15:12;34.10;;;6.45;;
48795;SDS011;34607;48.520;-1.330;2023-03-23T08:17:59;29.33;;;6.80;;
48795;SDS011;34607;48.520;-1.330;2023-03-23T08:20:46;32.05;;;6.20;;
48795;SDS011;34607;48.520;-1.330;2023-03-23T08:23:27;30.08;;;6.65;;
48795;SDS011;34607;48.520;-1.330;2023-03-23T08:26:29;31.83;;;6.72;;
48795;SDS011;34607;48.520;-1.330;2023-03-23T08:29:18;30.80;;;6.22;;
48795;SDS011;34607;48.520;-1.330;2023-03-23T08:31:54;28.05;;;5.82;;
48795;SDS011;34607;48.520;-1.330;2023-03-23T08:34:35;28.20;;;6.30;;
48795;SDS011;34607;48.520;-1.330;2023-03-23T08:37:25;25.95;;;6.22;;
48795;SDS011;34607;48.520;-1.330;2023-03-23T08:39:52;27.92;;;5.63;;
48795;SDS011;34607;48.520;-1.330;2023-03-23T08:42:45;33.38;;;7.40;;
48795;SDS011;34607;48.520;-1.330;2023-03-23T08:45:33;25.15;;;6.05;;
48795;SDS011;34607;48.520;-1.330;2023-03-23T08:48:14;26.63;;;5.90;;
48795;SDS011;34607;48.520;-1.330;2023-03-23T08:51:19;24.70;;;5.95;;
48795;SDS011;34607;48.520;-1.330;2023-03-23T08:54:09;40.78;;;6.57;;
48795;SDS011;34607;48.520;-1.330;2023-03-23T08:56:54;34.03;;;6.93;;
48795;SDS011;34607;48.520;-1.330;2023-03-23T08:59:34;33.33;;;8.38;;
48795;SDS011;34607;48.520;-1.330;2023-03-23T09:02:23;36.70;;;6.30;;
48795;SDS011;34607;48.520;-1.330;2023-03-23T09:04:55;32.58;;;8.70;;
48795;SDS011;34607;48.520;-1.330;2023-03-23T09:07:35;25.80;;;5.55;;
48795;SDS011;34607;48.520;-1.330;2023-03-23T09:10:03;33.28;;;6.47;;
48795;SDS011;34607;48.520;-1.330;2023-03-23T09:12:30;34.35;;;7.05;;
48795;SDS011;34607;48.520;-1.330;2023-03-23T09:14:57;33.78;;;6.57;;
48795;SDS011;34607;48.520;-1.330;2023-03-23T09:17:25;28.73;;;6.45;;
48795;SDS011;34607;48.520;-1.330;2023-03-23T09:19:52;28.27;;;6.20;;
48795;SDS011;34607;48.520;-1.330;2023-03-23T09:22:20;26.15;;;6.43;;
48795;SDS011;34607;48.520;-1.330;2023-03-23T09:24:48;26.00;;;6.68;;
48795;SDS011;34607;48.520;-1.330;2023-03-23T09:27:16;27.52;;;6.40;;
48795;SDS011;34607;48.520;-1.330;2023-03-23T09:29:44;27.42;;;6.30;;
48795;SDS011;34607;48.520;-1.330;2023-03-23T09:32:14;29.90;;;6.47;;
48795;SDS011;34607;48.520;-1.330;2023-03-23T09:34:42;25.70;;;5.70;;
48795;SDS011;34607;48.520;-1.330;2023-03-23T09:37:10;20.80;;;4.90;;
48795;SDS011;34607;48.520;-1.330;2023-03-23T09:39:39;21.10;;;5.47;;
48795;SDS011;34607;48.520;-1.330;2023-03-23T09:42:11;29.48;;;5.30;;
48795;SDS011;34607;48.520;-1.330;2023-03-23T09:44:51;21.20;;;5.43;;
48795;SDS011;34607;48.520;-1.330;2023-03-23T09:47:30;26.75;;;6.75;;
48795;SDS011;34607;48.520;-1.330;2023-03-23T09:50:09;22.85;;;6.25;;
48795;SDS011;34607;48.520;-1.330;2023-03-23T09:52:42;25.65;;;5.80;;
48795;SDS011;34607;48.520;-1.330;2023-03-23T09:55:13;35.58;;;6.35;;
48795;SDS011;34607;48.520;-1.330;2023-03-23T09:57:44;21.60;;;5.63;;
48795;SDS011;34607;48.520;-1.330;2023-03-23T10:00:26;20.58;;;5.35;;
48795;SDS011;34607;48.520;-1.330;2023-03-23T10:02:59;19.10;;;5.38;;
48795;SDS011;34607;48.520;-1.330;2023-03-23T10:05:34;23.67;;;5.75;;
48795;SDS011;34607;48.520;-1.330;2023-03-23T10:08:03;16.45;;;5.45;;
48795;SDS011;34607;48.520;-1.330;2023-03-23T10:10:41;17.98;;;4.28;;
48795;SDS011;34607;48.520;-1.330;2023-03-23T10:13:17;23.92;;;5.13;;
48795;SDS011;34607;48.520;-1.330;2023-03-23T10:15:52;25.65;;;5.10;;
48795;SDS011;34607;48.520;-1.330;2023-03-23T10:18:23;15.50;;;4.28;;
48795;SDS011;34607;48.520;-1.330;2023-03-23T10:20:57;20.23;;;5.10;;
48795;SDS011;34607;48.520;-1.330;2023-03-23T10:23:35;20.65;;;5.10;;
48795;SDS011;34607;48.520;-1.330;2023-03-23T10:29:14;21.27;;;5.20;;
48795;SDS011;34607;48.520;-1.330;2023-03-23T10:31:45;18.65;;;4.43;;
48795;SDS011;34607;48.520;-1.330;2023-03-23T10:34:19;23.65;;;5.57;;
48795;SDS011;34607;48.520;-1.330;2023-03-23T10:36:56;20.70;;;4.18;;
48795;SDS011;34607;48.520;-1.330;2023-03-23T10:39:31;18.95;;;4.80;;
48795;SDS011;34607;48.520;-1.330;2023-03-23T10:42:04;21.50;;;5.22;;
48795;SDS011;34607;48.520;-1.330;2023-03-23T10:44:32;24.13;;;5.38;;
48795;SDS011;34607;48.520;-1.330;2023-03-23T10:47:01;21.00;;;4.22;;
48795;SDS011;34607;48.520;-1.330;2023-03-23T10:49:31;18.15;;;4.75;;
48795;SDS011;34607;48.520;-1.330;2023-03-23T10:54:46;18.35;;;4.13;;
48795;SDS011;34607;48.520;-1.330;2023-03-23T10:57:23;11.90;;;3.97;;
48795;SDS011;34607;48.520;-1.330;2023-03-23T10:59:57;16.02;;;3.72;;
48795;SDS011;34607;48.520;-1.330;2023-03-23T11:02:26;20.35;;;5.13;;
48795;SDS011;34607;48.520;-1.330;2023-03-23T11:04:56;23.02;;;4.47;;
48795;SDS011;34607;48.520;-1.330;2023-03-23T11:07:28;18.20;;;4.85;;
48795;SDS011;34607;48.520;-1.330;2023-03-23T11:10:03;16.23;;;4.30;;
48795;SDS011;34607;48.520;-1.330;2023-03-23T11:12:34;16.20;;;3.90;;
48795;SDS011;34607;48.520;-1.330;2023-03-23T11:15:15;12.85;;;3.78;;
48795;SDS011;34607;48.520;-1.330;2023-03-23T11:17:55;12.57;;;3.92;;
48795;SDS011;34607;48.520;-1.330;2023-03-23T11:20:24;13.90;;;3.78;;
48795;SDS011;34607;48.520;-1.330;2023-03-23T11:22:55;14.25;;;3.75;;
48795;SDS011;34607;48.520;-1.330;2023-03-23T11:25:22;18.63;;;4.32;;
48795;SDS011;34607;48.520;-1.330;2023-03-23T11:27:49;21.70;;;4.90;;
48795;SDS011;34607;48.520;-1.330;2023-03-23T11:30:22;20.00;;;4.03;;
48795;SDS011;34607;48.520;-1.330;2023-03-23T11:32:52;13.85;;;3.70;;
48795;SDS011;34607;48.520;-1.330;2023-03-23T11:35:22;18.27;;;4.60;;
48795;SDS011;34607;48.520;-1.330;2023-03-23T11:37:52;17.15;;;4.35;;
48795;SDS011;34607;48.520;-1.330;2023-03-23T11:40:24;13.82;;;3.67;;
48795;SDS011;34607;48.520;-1.330;2023-03-23T11:42:57;14.18;;;4.15;;
48795;SDS011;34607;48.520;-1.330;2023-03-23T11:45:31;18.20;;;4.68;;
48795;SDS011;34607;48.520;-1.330;2023-03-23T11:48:06;17.33;;;4.55;;
48795;SDS011;34607;48.520;-1.330;2023-03-23T11:50:44;13.18;;;3.85;;
48795;SDS011;34607;48.520;-1.330;2023-03-23T11:53:20;16.13;;;4.25;;
48795;SDS011;34607;48.520;-1.330;2023-03-23T11:55:55;12.05;;;3.08;;
48795;SDS011;34607;48.520;-1.330;2023-03-23T11:58:29;17.52;;;5.57;;
48795;SDS011;34607;48.520;-1.330;2023-03-23T12:00:59;14.30;;;4.10;;
48795;SDS011;34607;48.520;-1.330;2023-03-23T12:03:37;14.85;;;4.25;;
48795;SDS011;34607;48.520;-1.330;2023-03-23T12:06:19;16.92;;;4.13;;
48795;SDS011;34607;48.520;-1.330;2023-03-23T12:08:59;18.13;;;5.13;;
48795;SDS011;34607;48.520;-1.330;2023-03-23T12:11:37;15.50;;;4.82;;
48795;SDS011;34607;48.520;-1.330;2023-03-23T12:14:14;24.08;;;5.10;;
48795;SDS011;34607;48.520;-1.330;2023-03-23T12:16:53;17.52;;;4.65;;
48795;SDS011;34607;48.520;-1.330;2023-03-23T12:19:29;14.65;;;5.28;;
48795;SDS011;34607;48.520;-1.330;2023-03-23T12:22:06;19.67;;;5.13;;
48795;SDS011;34607;48.520;-1.330;2023-03-23T12:24:46;24.17;;;5.63;;
48795;SDS011;34607;48.520;-1.330;2023-03-23T12:27:19;24.45;;;5.63;;
48795;SDS011;34607;48.520;-1.330;2023-03-23T12:29:58;22.10;;;5.22;;
48795;SDS011;34607;48.520;-1.330;2023-03-23T12:32:57;16.85;;;4.47;;
48795;SDS011;34607;48.520;-1.330;2023-03-23T12:35:54;21.95;;;6.97;;
48795;SDS011;34607;48.520;-1.330;2023-03-23T12:38:35;22.23;;;6.88;;
48795;SDS011;34607;48.520;-1.330;2023-03-23T12:41:18;22.17;;;4.78;;
48795;SDS011;34607;48.520;-1.330;2023-03-23T12:43:50;19.25;;;5.05;;
48795;SDS011;34607;48.520;-1.330;2023-03-23T12:49:17;20.90;;;6.15;;
48795;SDS011;34607;48.520;-1.330;2023-03-23T12:51:49;26.65;;;5.65;;
48795;SDS011;34607;48.520;-1.330;2023-03-23T12:54:24;26.23;;;5.35;;
48795;SDS011;34607;48.520;-1.330;2023-03-23T12:57:00;23.40;;;5.00;;
48795;SDS011;34607;48.520;-1.330;2023-03-23T12:59:34;21.77;;;5.25;;
48795;SDS011;34607;48.520;-1.330;2023-03-23T13:02:10;23.00;;;5.13;;
48795;SDS011;34607;48.520;-1.330;2023-03-23T13:04:44;31.80;;;5.72;;
48795;SDS011;34607;48.520;-1.330;2023-03-23T13:07:26;23.50;;;6.72;;
48795;SDS011;34607;48.520;-1.330;2023-03-23T13:10:01;20.85;;;5.38;;
48795;SDS011;34607;48.520;-1.330;2023-03-23T13:12:33;21.60;;;5.13;;
48795;SDS011;34607;48.520;-1.330;2023-03-23T13:15:06;26.15;;;6.20;;
48795;SDS011;34607;48.520;-1.330;2023-03-23T13:17:46;20.15;;;5.18;;
48795;SDS011;34607;48.520;-1.330;2023-03-23T13:20:27;24.30;;;6.18;;
48795;SDS011;34607;48.520;-1.330;2023-03-23T13:23:05;21.58;;;6.45;;
48795;SDS011;34607;48.520;-1.330;2023-03-23T13:25:46;18.17;;;5.17;;
48795;SDS011;34607;48.520;-1.330;2023-03-23T13:28:21;19.20;;;5.00;;
48795;SDS011;34607;48.520;-1.330;2023-03-23T13:30:54;28.00;;;6.03;;
48795;SDS011;34607;48.520;-1.330;2023-03-23T13:33:28;23.05;;;5.72;;
48795;SDS011;34607;48.520;-1.330;2023-03-23T13:36:01;20.40;;;6.32;;
48795;SDS011;34607;48.520;-1.330;2023-03-23T13:38:32;22.52;;;6.05;;
48795;SDS011;34607;48.520;-1.330;2023-03-23T13:41:05;22.38;;;6.05;;
48795;SDS011;34607;48.520;-1.330;2023-03-23T13:43:36;19.35;;;5.30;;
48795;SDS011;34607;48.520;-1.330;2023-03-23T13:46:09;20.02;;;5.45;;
48795;SDS011;34607;48.520;-1.330;2023-03-23T13:48:40;21.17;;;5.90;;
48795;SDS011;34607;48.520;-1.330;2023-03-23T13:51:23;15.35;;;4.75;;
48795;SDS011;34607;48.520;-1.330;2023-03-23T13:56:35;24.60;;;6.22;;
48795;SDS011;34607;48.520;-1.330;2023-03-23T13:59:07;24.33;;;6.70;;
48795;SDS011;34607;48.520;-1.330;2023-03-23T14:01:41;23.58;;;5.13;;
48795;SDS011;34607;48.520;-1.330;2023-03-23T14:04:10;19.88;;;5.07;;
48795;SDS011;34607;48.520;-1.330;2023-03-23T14:06:41;24.75;;;4.82;;
48795;SDS011;34607;48.520;-1.330;2023-03-23T14:11:48;20.95;;;4.85;;
48795;SDS011;34607;48.520;-1.330;2023-03-23T14:14:20;24.48;;;6.32;;
48795;SDS011;34607;48.520;-1.330;2023-03-23T14:19:19;21.77;;;4.57;;
48795;SDS011;34607;48.520;-1.330;2023-03-23T14:21:51;20.05;;;4.53;;
48795;SDS011;34607;48.520;-1.330;2023-03-23T14:24:22;18.92;;;4.80;;
48795;SDS011;34607;48.520;-1.330;2023-03-23T14:26:50;22.00;;;4.93;;
48795;SDS011;34607;48.520;-1.330;2023-03-23T14:29:20;23.08;;;5.47;;
48795;SDS011;34607;48.520;-1.330;2023-03-23T14:31:50;16.77;;;4.60;;
48795;SDS011;34607;48.520;-1.330;2023-03-23T14:34:22;19.48;;;5.00;;
48795;SDS011;34607;48.520;-1.330;2023-03-23T14:36:52;22.75;;;5.82;;
48795;SDS011;34607;48.520;-1.330;2023-03-23T14:39:23;18.92;;;4.97;;
48795;SDS011;34607;48.520;-1.330;2023-03-23T14:41:52;23.75;;;4.40;;
48795;SDS011;34607;48.520;-1.330;2023-03-23T14:44:23;11.82;;;4.03;;
48795;SDS011;34607;48.520;-1.330;2023-03-23T14:46:52;13.98;;;4.85;;
48795;SDS011;34607;48.520;-1.330;2023-03-23T14:49:24;17.58;;;4.40;;
48795;SDS011;34607;48.520;-1.330;2023-03-23T14:51:56;18.45;;;5.45;;
48795;SDS011;34607;48.520;-1.330;2023-03-23T14:54:31;17.05;;;5.55;;
48795;SDS011;34607;48.520;-1.330;2023-03-23T14:57:02;21.33;;;5.57;;
48795;SDS011;34607;48.520;-1.330;2023-03-23T14:59:40;16.08;;;4.80;;
48795;SDS011;34607;48.520;-1.330;2023-03-23T15:02:10;13.82;;;3.92;;
48795;SDS011;34607;48.520;-1.330;2023-03-23T15:04:40;14.20;;;4.30;;
48795;SDS011;34607;48.520;-1.330;2023-03-23T15:07:09;24.20;;;6.38;;
48795;SDS011;34607;48.520;-1.330;2023-03-23T15:09:38;16.90;;;4.35;;
48795;SDS011;34607;48.520;-1.330;2023-03-23T15:12:18;15.77;;;4.05;;
48795;SDS011;34607;48.520;-1.330;2023-03-23T15:14:51;17.05;;;4.90;;
48795;SDS011;34607;48.520;-1.330;2023-03-23T15:17:21;15.52;;;4.55;;
48795;SDS011;34607;48.520;-1.330;2023-03-23T15:19:50;15.85;;;3.97;;
48795;SDS011;34607;48.520;-1.330;2023-03-23T15:22:22;15.15;;;4.55;;
48795;SDS011;34607;48.520;-1.330;2023-03-23T15:24:51;17.42;;;4.10;;
48795;SDS011;34607;48.520;-1.330;2023-03-23T15:27:24;11.85;;;3.70;;
48795;SDS011;34607;48.520;-1.330;2023-03-23T15:29:55;13.55;;;3.90;;
48795;SDS011;34607;48.520;-1.330;2023-03-23T15:32:24;11.95;;;3.10;;
48795;SDS011;34607;48.520;-1.330;2023-03-23T15:34:53;13.00;;;3.42;;
48795;SDS011;34607;48.520;-1.330;2023-03-23T15:37:25;14.70;;;3.70;;
48795;SDS011;34607;48.520;-1.330;2023-03-23T15:39:54;10.15;;;2.90;;
48795;SDS011;34607;48.520;-1.330;2023-03-23T15:42:23;16.30;;;6.60;;
48795;SDS011;34607;48.520;-1.330;2023-03-23T15:45:05;13.60;;;4.57;;
48795;SDS011;34607;48.520;-1.330;2023-03-23T15:47:51;12.98;;;3.63;;
48795;SDS011;34607;48.520;-1.330;2023-03-23T15:50:19;9.18;;;3.13;;
48795;SDS011;34607;48.520;-1.330;2023-03-23T15:52:47;8.63;;;3.00;;
48795;SDS011;34607;48.520;-1.330;2023-03-23T15:55:20;9.85;;;3.50;;
48795;SDS011;34607;48.520;-1.330;2023-03-23T15:57:50;11.57;;;3.70;;
48795;SDS011;34607;48.520;-1.330;2023-03-23T16:00:19;11.15;;;3.75;;
48795;SDS011;34607;48.520;-1.330;2023-03-23T16:02:49;8.80;;;4.20;;
48795;SDS011;34607;48.520;-1.330;2023-03-23T16:05:19;12.50;;;4.72;;
48795;SDS011;34607;48.520;-1.330;2023-03-23T16:07:46;17.50;;;8.25;;
48795;SDS011;34607;48.520;-1.330;2023-03-23T16:10:14;8.73;;;2.17;;
48795;SDS011;34607;48.520;-1.330;2023-03-23T16:12:43;6.22;;;2.75;;
48795;SDS011;34607;48.520;-1.330;2023-03-23T16:15:10;6.40;;;1.88;;
48795;SDS011;34607;48.520;-1.330;2023-03-23T16:17:39;7.60;;;2.85;;
48795;SDS011;34607;48.520;-1.330;2023-03-23T16:20:12;6.90;;;1.92;;
48795;SDS011;34607;48.520;-1.330;2023-03-23T16:22:41;6.30;;;1.75;;
48795;SDS011;34607;48.520;-1.330;2023-03-23T16:25:08;7.30;;;2.03;;
48795;SDS011;34607;48.520;-1.330;2023-03-23T16:27:36;2.72;;;1.30;;
48795;SDS011;34607;48.520;-1.330;2023-03-23T16:30:09;7.28;;;1.98;;
48795;SDS011;34607;48.520;-1.330;2023-03-23T16:32:41;5.47;;;1.73;;
48795;SDS011;34607;48.520;-1.330;2023-03-23T16:35:09;5.88;;;1.65;;
48795;SDS011;34607;48.520;-1.330;2023-03-23T16:37:36;5.55;;;1.75;;
48795;SDS011;34607;48.520;-1.330;2023-03-23T16:40:04;4.38;;;1.88;;
48795;SDS011;34607;48.520;-1.330;2023-03-23T16:42:32;4.78;;;1.42;;
48795;SDS011;34607;48.520;-1.330;2023-03-23T16:44:59;3.92;;;1.33;;
48795;SDS011;34607;48.520;-1.330;2023-03-23T16:47:26;5.13;;;1.65;;
48795;SDS011;34607;48.520;-1.330;2023-03-23T16:49:55;2.30;;;1.33;;
48795;SDS011;34607;48.520;-1.330;2023-03-23T16:52:22;2.30;;;1.45;;
48795;SDS011;34607;48.520;-1.330;2023-03-23T16:54:49;4.90;;;1.67;;
48795;SDS011;34607;48.520;-1.330;2023-03-23T16:57:16;4.78;;;1.52;;
48795;SDS011;34607;48.520;-1.330;2023-03-23T16:59:44;4.85;;;1.85;;
48795;SDS011;34607;48.520;-1.330;2023-03-23T17:02:11;3.88;;;2.35;;
48795;SDS011;34607;48.520;-1.330;2023-03-23T17:04:41;4.38;;;1.85;;
48795;SDS011;34607;48.520;-1.330;2023-03-23T17:07:11;5.22;;;1.90;;
48795;SDS011;34607;48.520;-1.330;2023-03-23T17:09:38;4.10;;;1.70;;
48795;SDS011;34607;48.520;-1.330;2023-03-23T17:12:06;5.60;;;2.15;;
48795;SDS011;34607;48.520;-1.330;2023-03-23T17:14:33;4.22;;;1.80;;
48795;SDS011;34607;48.520;-1.330;2023-03-23T17:17:00;4.35;;;1.85;;
48795;SDS011;34607;48.520;-1.330;2023-03-23T17:19:27;5.07;;;1.77;;
48795;SDS011;34607;48.520;-1.330;2023-03-23T17:21:54;4.70;;;2.20;;
48795;SDS011;34607;48.520;-1.330;2023-03-23T17:24:23;3.72;;;1.77;;
48795;SDS011;34607;48.520;-1.330;2023-03-23T17:26:51;6.47;;;2.47;;
48795;SDS011;34607;48.520;-1.330;2023-03-23T17:29:18;5.93;;;2.63;;
48795;SDS011;34607;48.520;-1.330;2023-03-23T17:31:46;3.05;;;1.98;;
48795;SDS011;34607;48.520;-1.330;2023-03-23T17:34:13;4.72;;;2.70;;
48795;SDS011;34607;48.520;-1.330;2023-03-23T17:36:41;4.38;;;1.95;;
48795;SDS011;34607;48.520;-1.330;2023-03-23T17:39:08;10.50;;;3.10;;
48795;SDS011;34607;48.520;-1.330;2023-03-23T17:41:37;6.45;;;3.30;;
48795;SDS011;34607;48.520;-1.330;2023-03-23T17:44:04;7.00;;;4.38;;
48795;SDS011;34607;48.520;-1.330;2023-03-23T17:46:31;7.03;;;4.13;;
48795;SDS011;34607;48.520;-1.330;2023-03-23T17:48:59;3.83;;;2.80;;
48795;SDS011;34607;48.520;-1.330;2023-03-23T17:51:26;5.32;;;2.55;;
48795;SDS011;34607;48.520;-1.330;2023-03-23T17:53:53;6.00;;;3.63;;
48795;SDS011;34607;48.520;-1.330;2023-03-23T17:56:20;5.53;;;4.00;;
48795;SDS011;34607;48.520;-1.330;2023-03-23T17:58:48;3.85;;;2.75;;
48795;SDS011;34607;48.520;-1.330;2023-03-23T18:01:16;4.88;;;2.10;;
48795;SDS011;34607;48.520;-1.330;2023-03-23T18:03:43;4.25;;;2.33;;
48795;SDS011;34607;48.520;-1.330;2023-03-23T18:06:10;4.00;;;2.15;;
48795;SDS011;34607;48.520;-1.330;2023-03-23T18:08:38;3.65;;;2.20;;
48795;SDS011;34607;48.520;-1.330;2023-03-23T18:11:05;2.80;;;2.00;;
48795;SDS011;34607;48.520;-1.330;2023-03-23T18:13:33;3.20;;;1.80;;
48795;SDS011;34607;48.520;-1.330;2023-03-23T18:16:04;3.30;;;2.58;;
48795;SDS011;34607;48.520;-1.330;2023-03-23T18:18:32;3.47;;;1.63;;
48795;SDS011;34607;48.520;-1.330;2023-03-23T18:21:01;2.28;;;1.60;;
48795;SDS011;34607;48.520;-1.330;2023-03-23T18:23:29;3.20;;;2.03;;
48795;SDS011;34607;48.520;-1.330;2023-03-23T18:26:00;4.32;;;2.60;;
48795;SDS011;34607;48.520;-1.330;2023-03-23T18:28:27;4.93;;;2.50;;
48795;SDS011;34607;48.520;-1.330;2023-03-23T18:30:54;4.75;;;2.40;;
48795;SDS011;34607;48.520;-1.330;2023-03-23T18:33:29;2.40;;;2.20;;
48795;SDS011;34607;48.520;-1.330;2023-03-23T18:35:56;6.25;;;2.65;;
48795;SDS011;34607;48.520;-1.330;2023-03-23T18:38:25;6.47;;;4.45;;
48795;SDS011;34607;48.520;-1.330;2023-03-23T18:40:52;4.60;;;4.03;;
48795;SDS011;34607;48.520;-1.330;2023-03-23T18:43:20;6.78;;;3.20;;
48795;SDS011;34607;48.520;-1.330;2023-03-23T18:45:47;2.92;;;2.45;;
48795;SDS011;34607;48.520;-1.330;2023-03-23T18:48:15;3.58;;;2.28;;
48795;SDS011;34607;48.520;-1.330;2023-03-23T18:50:46;3.88;;;2.70;;
48795;SDS011;34607;48.520;-1.330;2023-03-23T18:53:13;4.38;;;2.58;;
48795;SDS011;34607;48.520;-1.330;2023-03-23T18:55:41;3.75;;;2.15;;
48795;SDS011;34607;48.520;-1.330;2023-03-23T18:58:08;3.53;;;2.75;;
48795;SDS011;34607;48.520;-1.330;2023-03-23T19:00:36;5.60;;;2.80;;
48795;SDS011;34607;48.520;-1.330;2023-03-23T19:03:03;3.67;;;2.55;;
48795;SDS011;34607;48.520;-1.330;2023-03-23T19:05:31;3.28;;;2.97;;
48795;SDS011;34607;48.520;-1.330;2023-03-23T19:08:00;2.63;;;2.42;;
48795;SDS011;34607;48.520;-1.330;2023-03-23T19:10:29;4.28;;;1.90;;
48795;SDS011;34607;48.520;-1.330;2023-03-23T19:13:01;3.13;;;2.47;;
48795;SDS011;34607;48.520;-1.330;2023-03-23T19:15:28;3.85;;;2.08;;
48795;SDS011;34607;48.520;-1.330;2023-03-23T19:17:55;4.20;;;2.90;;
48795;SDS011;34607;48.520;-1.330;2023-03-23T19:20:22;3.15;;;2.35;;
48795;SDS011;34607;48.520;-1.330;2023-03-23T19:22:50;5.25;;;2.75;;
48795;SDS011;34607;48.520;-1.330;2023-03-23T19:25:20;5.35;;;3.40;;
48795;SDS011;34607;48.520;-1.330;2023-03-23T19:27:47;5.20;;;2.60;;
48795;SDS011;34607;48.520;-1.330;2023-03-23T19:30:14;4.18;;;3.40;;
48795;SDS011;34607;48.520;-1.330;2023-03-23T19:32:41;10.85;;;6.13;;
48795;SDS011;34607;48.520;-1.330;2023-03-23T19:35:08;3.20;;;2.78;;
48795;SDS011;34607;48.520;-1.330;2023-03-23T19:37:36;3.85;;;2.65;;
48795;SDS011;34607;48.520;-1.330;2023-03-23T19:40:03;3.05;;;2.72;;
48795;SDS011;34607;48.520;-1.330;2023-03-23T19:42:33;3.70;;;3.20;;
48795;SDS011;34607;48.520;-1.330;2023-03-23T19:45:00;5.35;;;3.70;;
48795;SDS011;34607;48.520;-1.330;2023-03-23T19:47:28;5.10;;;2.88;;
48795;SDS011;34607;48.520;-1.330;2023-03-23T19:49:55;4.00;;;2.85;;
48795;SDS011;34607;48.520;-1.330;2023-03-23T19:52:24;3.40;;;2.65;;
48795;SDS011;34607;48.520;-1.330;2023-03-23T19:54:52;3.00;;;2.38;;
48795;SDS011;34607;48.520;-1.330;2023-03-23T19:57:19;5.13;;;3.55;;
48795;SDS011;34607;48.520;-1.330;2023-03-23T19:59:47;4.32;;;3.30;;
48795;SDS011;34607;48.520;-1.330;2023-03-23T20:02:15;4.50;;;4.10;;
48795;SDS011;34607;48.520;-1.330;2023-03-23T20:04:42;2.97;;;2.67;;
48795;SDS011;34607;48.520;-1.330;2023-03-23T20:07:09;4.03;;;2.58;;
48795;SDS011;34607;48.520;-1.330;2023-03-23T20:09:36;5.10;;;3.53;;
48795;SDS011;34607;48.520;-1.330;2023-03-23T20:12:04;5.18;;;2.72;;
48795;SDS011;34607;48.520;-1.330;2023-03-23T20:14:31;5.25;;;2.95;;
48795;SDS011;34607;48.520;-1.330;2023-03-23T20:17:00;4.30;;;2.78;;
48795;SDS011;34607;48.520;-1.330;2023-03-23T20:19:27;2.90;;;2.35;;
48795;SDS011;34607;48.520;-1.330;2023-03-23T20:21:54;4.93;;;2.63;;
48795;SDS011;34607;48.520;-1.330;2023-03-23T20:24:21;3.13;;;1.83;;
48795;SDS011;34607;48.520;-1.330;2023-03-23T20:26:48;4.38;;;3.13;;
48795;SDS011;34607;48.520;-1.330;2023-03-23T20:29:15;2.35;;;2.15;;
48795;SDS011;34607;48.520;-1.330;2023-03-23T20:31:43;3.47;;;2.45;;
48795;SDS011;34607;48.520;-1.330;2023-03-23T20:34:12;4.07;;;2.30;;
48795;SDS011;34607;48.520;-1.330;2023-03-23T20:36:42;5.18;;;3.85;;
48795;SDS011;34607;48.520;-1.330;2023-03-23T20:39:13;3.90;;;1.90;;
48795;SDS011;34607;48.520;-1.330;2023-03-23T20:41:43;3.45;;;2.45;;
48795;SDS011;34607;48.520;-1.330;2023-03-23T20:44:11;5.03;;;1.95;;
48795;SDS011;34607;48.520;-1.330;2023-03-23T20:46:39;2.20;;;1.77;;
48795;SDS011;34607;48.520;-1.330;2023-03-23T20:49:07;3.35;;;1.88;;
48795;SDS011;34607;48.520;-1.330;2023-03-23T20:51:35;3.40;;;1.40;;
48795;SDS011;34607;48.520;-1.330;2023-03-23T20:54:03;2.90;;;1.38;;
48795;SDS011;34607;48.520;-1.330;2023-03-23T20:56:30;1.75;;;1.55;;
48795;SDS011;34607;48.520;-1.330;2023-03-23T20:58:57;3.75;;;1.50;;
48795;SDS011;34607;48.520;-1.330;2023-03-23T21:01:25;3.42;;;1.27;;
48795;SDS011;34607;48.520;-1.330;2023-03-23T21:03:52;2.97;;;1.40;;
48795;SDS011;34607;48.520;-1.330;2023-03-23T21:06:21;2.67;;;1.23;;
48795;SDS011;34607;48.520;-1.330;2023-03-23T21:08:53;4.35;;;0.93;;
48795;SDS011;34607;48.520;-1.330;2023-03-23T21:11:22;1.48;;;1.10;;
48795;SDS011;34607;48.520;-1.330;2023-03-23T21:13:50;1.55;;;1.13;;
48795;SDS011;34607;48.520;-1.330;2023-03-23T21:16:18;3.30;;;1.05;;
48795;SDS011;34607;48.520;-1.330;2023-03-23T21:18:45;3.38;;;1.30;;
48795;SDS011;34607;48.520;-1.330;2023-03-23T21:21:12;3.60;;;1.17;;
48795;SDS011;34607;48.520;-1.330;2023-03-23T21:23:42;3.65;;;1.38;;
48795;SDS011;34607;48.520;-1.330;2023-03-23T21:26:18;4.15;;;1.58;;
48795;SDS011;34607;48.520;-1.330;2023-03-23T21:28:47;4.50;;;1.88;;
48795;SDS011;34607;48.520;-1.330;2023-03-23T21:31:18;2.15;;;1.10;;
48795;SDS011;34607;48.520;-1.330;2023-03-23T21:33:47;3.40;;;1.85;;
48795;SDS011;34607;48.520;-1.330;2023-03-23T21:36:14;2.65;;;1.20;;
48795;SDS011;34607;48.520;-1.330;2023-03-23T21:38:41;2.53;;;1.17;;
48795;SDS011;34607;48.520;-1.330;2023-03-23T21:41:09;2.80;;;1.20;;
48795;SDS011;34607;48.520;-1.330;2023-03-23T21:43:39;5.75;;;0.85;;
48795;SDS011;34607;48.520;-1.330;2023-03-23T21:46:11;4.57;;;2.55;;
48795;SDS011;34607;48.520;-1.330;2023-03-23T21:48:42;3.78;;;1.90;;
48795;SDS011;34607;48.520;-1.330;2023-03-23T21:51:11;3.17;;;2.28;;
48795;SDS011;34607;48.520;-1.330;2023-03-23T21:53:40;8.68;;;5.03;;
48795;SDS011;34607;48.520;-1.330;2023-03-23T21:56:09;3.10;;;2.63;;
48795;SDS011;34607;48.520;-1.330;2023-03-23T21:58:37;2.88;;;1.63;;
48795;SDS011;34607;48.520;-1.330;2023-03-23T22:01:05;4.00;;;2.88;;
48795;SDS011;34607;48.520;-1.330;2023-03-23T22:03:33;4.15;;;3.13;;
48795;SDS011;34607;48.520;-1.330;2023-03-23T22:06:05;6.05;;;4.18;;
